createdAt,value
2019-03-31T00:00:04.035Z,72.00
2019-03-31T00:02:33.163Z,72.50
2019-03-31T00:05:01.374Z,72.35
2019-03-31T00:07:29.584Z,72.53
2019-03-31T00:09:58.876Z,72.38
2019-03-31T00:12:27.096Z,72.45
2019-03-31T00:14:55.293Z,72.42
2019-03-31T00:17:23.520Z,72.49
2019-03-31T00:19:51.732Z,72.61
2019-03-31T00:22:19.934Z,72.49
2019-03-31T00:24:48.156Z,72.66
2019-03-31T00:27:16.356Z,72.65
2019-03-31T00:29:44.588Z,72.56
2019-03-31T00:32:12.792Z,72.68
2019-03-31T00:34:41.017Z,72.82
2019-03-31T00:37:09.224Z,72.69
2019-03-31T00:39:37.440Z,73.02
2019-03-31T00:42:05.645Z,72.70
2019-03-31T00:44:33.872Z,72.55
2019-03-31T00:47:02.436Z,72.68
2019-03-31T00:49:30.855Z,72.67
2019-03-31T00:51:59.070Z,72.58
2019-03-31T00:54:27.922Z,72.58
2019-03-31T00:56:56.179Z,72.45
2019-03-31T00:59:24.371Z,72.45
2019-03-31T01:01:56.864Z,72.43
2019-03-31T01:04:26.146Z,72.48
2019-03-31T01:06:54.792Z,72.28
2019-03-31T01:09:25.296Z,72.58
2019-03-31T01:11:53.667Z,72.36
2019-03-31T01:14:21.930Z,72.57
2019-03-31T01:16:50.312Z,72.74
2019-03-31T01:19:18.941Z,72.73
2019-03-31T01:21:47.139Z,72.73
2019-03-31T01:24:15.611Z,72.58
2019-03-31T01:26:43.881Z,72.46
2019-03-31T01:29:12.085Z,72.31
2019-03-31T01:31:50.165Z,72.41
2019-03-31T01:34:10.269Z,72.39
2019-03-31T01:36:38.461Z,72.54
2019-03-31T01:39:08.692Z,72.52
2019-03-31T01:41:36.960Z,72.97
2019-03-31T01:44:05.174Z,73.04
2019-03-31T01:46:33.376Z,73.28
2019-03-31T01:49:01.645Z,73.40
2019-03-31T01:51:29.911Z,73.57
2019-03-31T01:53:58.064Z,73.68
2019-03-31T01:56:26.266Z,73.76
2019-03-31T01:58:54.466Z,73.81
2019-03-31T02:01:24.256Z,73.58
2019-03-31T02:03:52.453Z,73.62
2019-03-31T02:06:20.669Z,73.75
2019-03-31T02:08:48.878Z,73.63
2019-03-31T02:11:17.100Z,73.59
2019-03-31T02:13:45.305Z,73.68
2019-03-31T02:16:13.517Z,73.67
2019-03-31T02:18:41.716Z,73.56
2019-03-31T02:21:09.927Z,73.59
2019-03-31T02:23:38.133Z,73.48
2019-03-31T02:26:06.347Z,73.56
2019-03-31T02:28:34.538Z,73.60
2019-03-31T02:31:02.746Z,73.57
2019-03-31T02:33:32.581Z,73.56
2019-03-31T02:36:00.797Z,73.52
2019-03-31T02:38:28.988Z,73.41
2019-03-31T02:40:57.203Z,73.51
2019-03-31T02:43:25.401Z,73.44
2019-03-31T02:45:53.610Z,73.42
2019-03-31T02:48:21.858Z,73.38
2019-03-31T02:50:50.766Z,73.27
2019-03-31T02:53:19.895Z,73.20
2019-03-31T02:55:48.102Z,72.85
2019-03-31T02:58:16.875Z,72.86
2019-03-31T03:00:45.253Z,72.85
2019-03-31T03:03:15.246Z,72.59
2019-03-31T03:05:43.451Z,72.39
2019-03-31T03:08:11.653Z,72.63
2019-03-31T03:10:39.876Z,72.62
2019-03-31T03:13:09.910Z,72.78
2019-03-31T03:15:57.389Z,72.71
2019-03-31T03:18:27.464Z,72.91
2019-03-31T03:20:55.668Z,72.85
2019-03-31T03:23:23.887Z,72.75
2019-03-31T03:25:56.218Z,72.75
2019-03-31T03:28:22.008Z,72.89
2019-03-31T03:30:50.341Z,73.12
2019-03-31T03:33:19.027Z,73.24
2019-03-31T03:35:47.479Z,73.32
2019-03-31T03:38:15.683Z,73.33
2019-03-31T03:40:43.883Z,73.20
2019-03-31T03:43:12.101Z,73.14
2019-03-31T03:45:40.297Z,73.14
2019-03-31T03:48:08.498Z,73.12
2019-03-31T03:50:36.698Z,73.17
2019-03-31T03:53:04.906Z,73.30
2019-03-31T03:55:33.101Z,73.48
2019-03-31T03:58:01.299Z,73.22
2019-03-31T04:00:29.521Z,73.17
2019-03-31T04:02:57.716Z,73.17
2019-03-31T04:05:25.914Z,72.85
2019-03-31T04:07:54.123Z,72.93
2019-03-31T04:10:44.707Z,73.01
2019-03-31T04:13:12.911Z,73.01
2019-03-31T04:15:41.108Z,72.88
2019-03-31T04:18:09.322Z,72.80
2019-03-31T04:20:39.500Z,72.67
2019-03-31T04:23:07.523Z,72.78
2019-03-31T04:25:35.743Z,72.93
2019-03-31T04:28:03.938Z,73.07
2019-03-31T04:30:32.151Z,72.95
2019-03-31T04:33:00.353Z,72.83
2019-03-31T04:35:28.560Z,72.95
2019-03-31T04:37:56.844Z,72.96
2019-03-31T04:40:25.041Z,73.01
2019-03-31T04:42:53.234Z,72.89
2019-03-31T04:45:21.452Z,73.09
2019-03-31T04:47:49.649Z,73.09
2019-03-31T04:50:17.858Z,73.18
2019-03-31T04:52:46.055Z,73.02
2019-03-31T04:55:14.271Z,73.01
2019-03-31T04:57:42.467Z,73.14
2019-03-31T05:00:10.678Z,73.36
2019-03-31T05:02:38.876Z,73.66
2019-03-31T05:05:07.098Z,73.53
2019-03-31T05:07:35.293Z,73.66
2019-03-31T05:10:04.747Z,73.63
2019-03-31T05:12:32.944Z,73.73
2019-03-31T05:15:01.213Z,73.67
2019-03-31T05:17:29.424Z,73.71
2019-03-31T05:19:57.616Z,73.72
2019-03-31T05:22:25.837Z,73.62
2019-03-31T05:24:54.041Z,73.54
2019-03-31T05:27:22.255Z,73.38
2019-03-31T05:29:50.450Z,73.26
2019-03-31T05:32:18.663Z,73.36
2019-03-31T05:34:46.863Z,73.36
2019-03-31T05:37:15.073Z,73.30
2019-03-31T05:39:43.268Z,73.17
2019-03-31T05:42:11.475Z,73.18
2019-03-31T05:44:39.929Z,73.18
2019-03-31T05:47:08.137Z,73.08
2019-03-31T05:49:36.337Z,73.10
2019-03-31T05:52:04.554Z,72.84
2019-03-31T05:54:32.754Z,72.68
2019-03-31T05:57:00.963Z,72.69
2019-03-31T05:59:29.158Z,72.36
2019-03-31T06:01:57.817Z,72.11
2019-03-31T06:04:33.025Z,71.91
2019-03-31T06:06:55.939Z,71.64
2019-03-31T06:09:24.153Z,71.43
2019-03-31T06:11:53.586Z,71.45
2019-03-31T06:14:22.962Z,71.46
2019-03-31T06:16:51.160Z,71.36
2019-03-31T06:19:19.367Z,71.02
2019-03-31T06:21:47.563Z,71.21
2019-03-31T06:24:15.781Z,71.41
2019-03-31T06:26:43.975Z,71.37
2019-03-31T06:29:12.194Z,70.90
2019-03-31T06:31:40.389Z,70.84
2019-03-31T06:34:08.608Z,70.71
2019-03-31T06:36:36.806Z,70.26
2019-03-31T06:39:07.176Z,70.12
2019-03-31T06:41:35.448Z,69.91
2019-03-31T06:44:03.655Z,69.91
2019-03-31T06:46:32.857Z,69.12
2019-03-31T06:49:01.056Z,68.60
2019-03-31T06:51:29.276Z,68.60
2019-03-31T06:53:57.477Z,68.49
2019-03-31T06:56:25.693Z,68.32
2019-03-31T06:58:53.900Z,67.68
2019-03-31T07:01:23.271Z,67.00
2019-03-31T07:03:51.479Z,67.07
2019-03-31T07:06:19.693Z,66.23
2019-03-31T07:08:47.893Z,64.36
2019-03-31T07:11:16.104Z,66.61
2019-03-31T07:13:44.306Z,66.23
2019-03-31T07:16:12.599Z,66.30
2019-03-31T07:18:40.818Z,65.91
2019-03-31T07:21:10.658Z,64.05
2019-03-31T07:23:38.859Z,64.39
2019-03-31T07:26:07.075Z,65.40
2019-03-31T07:28:35.274Z,65.79
2019-03-31T07:31:03.472Z,65.00
2019-03-31T07:33:31.690Z,64.37
2019-03-31T07:35:59.974Z,63.17
2019-03-31T07:38:38.359Z,64.21
2019-03-31T07:41:11.735Z,64.48
2019-03-31T07:43:28.043Z,64.42
2019-03-31T07:45:56.244Z,63.82
2019-03-31T07:48:24.467Z,63.97
2019-03-31T07:50:52.667Z,63.65
2019-03-31T07:53:21.327Z,63.03
2019-03-31T07:55:49.539Z,62.88
2019-03-31T07:58:17.741Z,62.84
2019-03-31T08:00:46.034Z,60.47
2019-03-31T08:03:15.714Z,58.99
2019-03-31T08:05:43.938Z,61.40
2019-03-31T08:08:12.137Z,61.34
2019-03-31T08:10:40.349Z,60.84
2019-03-31T08:13:08.546Z,60.54
2019-03-31T08:15:36.741Z,60.79
2019-03-31T08:18:04.952Z,57.68
2019-03-31T08:20:33.153Z,59.51
2019-03-31T08:23:02.675Z,59.35
2019-03-31T08:25:30.882Z,59.13
2019-03-31T08:27:59.099Z,57.19
2019-03-31T08:30:27.297Z,58.38
2019-03-31T08:32:55.496Z,58.17
2019-03-31T08:35:23.724Z,57.41
2019-03-31T08:37:51.918Z,55.77
2019-03-31T08:40:20.133Z,55.77
2019-03-31T08:42:48.334Z,56.16
2019-03-31T08:45:16.543Z,53.69
2019-03-31T08:47:44.741Z,55.49
2019-03-31T08:50:12.959Z,55.29
2019-03-31T08:52:41.228Z,53.36
2019-03-31T08:55:09.427Z,51.50
2019-03-31T08:57:37.664Z,49.58
2019-03-31T09:00:07.954Z,52.48
2019-03-31T09:02:36.230Z,52.78
2019-03-31T09:05:06.469Z,52.73
2019-03-31T09:07:34.681Z,52.13
2019-03-31T09:10:03.354Z,52.13
2019-03-31T09:12:31.546Z,50.96
2019-03-31T09:14:59.753Z,51.74
2019-03-31T09:17:27.953Z,52.19
2019-03-31T09:19:56.633Z,51.74
2019-03-31T09:22:24.911Z,52.53
2019-03-31T09:24:53.120Z,51.44
2019-03-31T09:27:21.320Z,51.83
2019-03-31T09:29:50.002Z,51.65
2019-03-31T09:32:18.203Z,51.18
2019-03-31T09:34:47.065Z,50.59
2019-03-31T09:37:15.276Z,51.46
2019-03-31T09:39:43.519Z,48.09
2019-03-31T09:42:11.679Z,49.37
2019-03-31T09:44:39.884Z,49.58
2019-03-31T09:47:08.097Z,49.34
2019-03-31T09:49:36.295Z,47.76
2019-03-31T09:52:04.520Z,49.01
2019-03-31T09:54:32.719Z,49.29
2019-03-31T09:57:00.917Z,49.50
2019-03-31T09:59:29.151Z,47.44
2019-03-31T10:01:57.330Z,47.61
2019-03-31T10:04:25.539Z,47.94
2019-03-31T10:06:53.809Z,44.24
2019-03-31T10:09:22.021Z,47.07
2019-03-31T10:11:50.214Z,47.22
2019-03-31T10:14:18.434Z,46.22
2019-03-31T10:16:46.636Z,46.61
2019-03-31T10:19:14.851Z,46.33
2019-03-31T10:21:43.049Z,46.43
2019-03-31T10:24:11.259Z,41.09
2019-03-31T10:26:39.464Z,44.80
2019-03-31T10:29:07.664Z,45.78
2019-03-31T10:31:35.874Z,45.31
2019-03-31T10:34:04.413Z,45.13
2019-03-31T10:36:43.829Z,45.56
2019-03-31T10:39:04.098Z,43.30
2019-03-31T10:41:32.288Z,44.00
2019-03-31T10:44:00.497Z,44.71
2019-03-31T10:46:28.692Z,44.32
2019-03-31T10:48:56.904Z,44.42
2019-03-31T10:51:25.100Z,43.49
2019-03-31T10:53:53.319Z,44.74
2019-03-31T10:56:21.518Z,43.82
2019-03-31T10:58:49.735Z,43.87
2019-03-31T11:01:17.930Z,43.69
2019-03-31T11:03:46.135Z,43.54
2019-03-31T11:06:14.351Z,44.46
2019-03-31T11:08:42.546Z,42.72
2019-03-31T11:11:10.746Z,43.88
2019-03-31T11:13:38.948Z,43.65
2019-03-31T11:16:07.165Z,42.33
2019-03-31T11:18:35.352Z,43.16
2019-03-31T11:21:05.879Z,42.65
2019-03-31T11:23:34.079Z,40.64
2019-03-31T11:26:02.282Z,42.72
2019-03-31T11:28:30.496Z,43.17
2019-03-31T11:30:58.697Z,42.83
2019-03-31T11:33:26.901Z,42.64
2019-03-31T11:35:55.170Z,42.60
2019-03-31T11:38:24.038Z,42.60
2019-03-31T11:40:52.230Z,41.84
2019-03-31T11:43:20.445Z,42.22
2019-03-31T11:45:48.632Z,42.19
2019-03-31T11:48:16.835Z,41.72
2019-03-31T11:50:45.044Z,42.23
2019-03-31T11:53:13.239Z,40.88
2019-03-31T11:55:41.449Z,40.71
2019-03-31T11:58:09.645Z,39.96
2019-03-31T12:00:42.883Z,41.53
2019-03-31T12:03:11.083Z,41.23
2019-03-31T12:05:39.315Z,40.96
2019-03-31T12:08:07.513Z,41.86
2019-03-31T12:10:35.886Z,41.56
2019-03-31T12:13:04.092Z,42.14
2019-03-31T12:15:32.295Z,42.62
2019-03-31T12:18:00.500Z,42.09
2019-03-31T12:20:28.707Z,41.65
2019-03-31T12:22:56.929Z,41.78
2019-03-31T12:25:25.106Z,41.48
2019-03-31T12:27:53.317Z,41.20
2019-03-31T12:30:27.631Z,41.35
2019-03-31T12:32:57.008Z,41.35
2019-03-31T12:35:25.198Z,40.82
2019-03-31T12:37:53.401Z,41.75
2019-03-31T12:40:32.535Z,41.35
2019-03-31T12:43:00.745Z,41.27
2019-03-31T12:45:28.946Z,41.34
2019-03-31T12:47:57.168Z,41.71
2019-03-31T12:50:25.364Z,40.93
2019-03-31T12:52:53.569Z,40.96
2019-03-31T12:55:21.773Z,40.87
2019-03-31T12:57:51.902Z,40.37
2019-03-31T13:00:19.904Z,40.84
2019-03-31T13:02:48.095Z,40.65
2019-03-31T13:05:16.303Z,41.43
2019-03-31T13:07:55.727Z,41.14
2019-03-31T13:10:14.440Z,40.58
2019-03-31T13:12:42.641Z,40.25
2019-03-31T13:15:10.841Z,40.01
2019-03-31T13:17:39.046Z,40.32
2019-03-31T13:20:07.316Z,40.38
2019-03-31T13:22:35.527Z,40.46
2019-03-31T13:25:05.561Z,40.70
2019-03-31T13:27:33.768Z,39.94
2019-03-31T13:30:01.963Z,40.22
2019-03-31T13:32:30.176Z,40.29
2019-03-31T13:34:58.372Z,40.76
2019-03-31T13:37:26.568Z,41.27
2019-03-31T13:39:54.770Z,41.49
2019-03-31T13:42:22.970Z,41.73
2019-03-31T13:44:51.188Z,40.93
2019-03-31T13:47:19.386Z,41.18
2019-03-31T13:49:47.592Z,40.59
2019-03-31T13:52:15.788Z,40.40
2019-03-31T13:54:44.005Z,40.86
2019-03-31T13:57:13.424Z,40.30
2019-03-31T13:59:42.097Z,40.23
2019-03-31T14:02:10.277Z,40.03
2019-03-31T14:04:50.971Z,40.18
2019-03-31T14:07:08.406Z,39.99
2019-03-31T14:09:36.673Z,40.71
2019-03-31T14:12:04.880Z,41.14
2019-03-31T14:14:34.200Z,41.24
2019-03-31T14:17:02.409Z,41.03
2019-03-31T14:19:30.597Z,40.26
2019-03-31T14:21:58.789Z,41.15
2019-03-31T14:24:27.334Z,39.84
2019-03-31T14:26:56.052Z,39.97
2019-03-31T14:29:24.265Z,40.46
2019-03-31T14:31:52.456Z,40.49
2019-03-31T14:34:20.668Z,40.09
2019-03-31T14:36:48.866Z,39.97
2019-03-31T14:39:17.344Z,40.33
2019-03-31T14:41:45.540Z,40.31
2019-03-31T14:44:13.742Z,40.58
2019-03-31T14:46:41.940Z,40.75
2019-03-31T14:49:10.145Z,40.15
2019-03-31T14:51:38.344Z,40.02
2019-03-31T14:54:06.554Z,40.10
2019-03-31T14:56:34.746Z,39.79
2019-03-31T14:59:02.955Z,40.41
2019-03-31T15:01:31.148Z,40.05
2019-03-31T15:03:59.366Z,40.91
2019-03-31T15:06:27.555Z,41.28
2019-03-31T15:08:55.845Z,41.34
2019-03-31T15:11:24.039Z,41.57
2019-03-31T15:13:52.259Z,41.50
2019-03-31T15:16:20.462Z,41.02
2019-03-31T15:18:48.650Z,40.93
2019-03-31T15:21:17.319Z,40.58
2019-03-31T15:23:45.511Z,40.82
2019-03-31T15:26:13.793Z,40.92
2019-03-31T15:28:45.297Z,41.11
2019-03-31T15:31:11.926Z,40.85
2019-03-31T15:33:40.126Z,40.45
2019-03-31T15:36:08.346Z,40.91
2019-03-31T15:38:36.543Z,40.72
2019-03-31T15:41:04.813Z,41.03
2019-03-31T15:43:33.015Z,40.97
2019-03-31T15:46:01.217Z,40.60
2019-03-31T15:48:29.431Z,41.06
2019-03-31T15:50:57.628Z,41.14
2019-03-31T15:53:26.204Z,40.45
2019-03-31T15:55:54.403Z,40.73
2019-03-31T15:58:22.610Z,40.17
2019-03-31T16:00:50.813Z,40.30
2019-03-31T16:03:19.025Z,40.73
2019-03-31T16:05:47.240Z,40.72
2019-03-31T16:08:15.437Z,40.87
2019-03-31T16:10:43.629Z,41.03
2019-03-31T16:13:11.920Z,41.14
2019-03-31T16:15:40.112Z,41.29
2019-03-31T16:18:08.310Z,41.11
2019-03-31T16:20:36.603Z,41.16
2019-03-31T16:23:04.807Z,41.12
2019-03-31T16:25:38.116Z,41.49
2019-03-31T16:28:06.324Z,41.40
2019-03-31T16:30:35.710Z,41.42
2019-03-31T16:33:06.840Z,41.48
2019-03-31T16:35:33.840Z,41.49
2019-03-31T16:38:02.034Z,41.66
2019-03-31T16:40:30.235Z,41.57
2019-03-31T16:42:58.443Z,41.40
2019-03-31T16:45:26.638Z,41.60
2019-03-31T16:47:54.848Z,41.64
2019-03-31T16:50:23.054Z,41.66
2019-03-31T16:52:52.810Z,41.82
2019-03-31T16:55:21.222Z,42.07
2019-03-31T16:57:49.424Z,42.29
2019-03-31T17:00:17.609Z,42.10
2019-03-31T17:02:46.280Z,42.39
2019-03-31T17:05:21.629Z,42.20
2019-03-31T17:07:44.384Z,42.46
2019-03-31T17:10:12.568Z,42.60
2019-03-31T17:12:40.775Z,42.77
2019-03-31T17:15:08.968Z,42.91
2019-03-31T17:17:37.181Z,43.01
2019-03-31T17:20:06.117Z,43.00
2019-03-31T17:22:34.344Z,43.29
2019-03-31T17:25:02.612Z,43.37
2019-03-31T17:27:30.804Z,43.53
2019-03-31T17:29:59.011Z,43.74
2019-03-31T17:32:27.214Z,43.77
2019-03-31T17:34:55.420Z,43.91
2019-03-31T17:37:23.616Z,44.14
2019-03-31T17:40:05.129Z,44.22
2019-03-31T17:42:21.749Z,44.42
2019-03-31T17:44:49.964Z,44.67
2019-03-31T17:47:18.184Z,44.94
2019-03-31T17:49:46.378Z,45.14
2019-03-31T17:52:14.578Z,45.09
2019-03-31T17:54:42.774Z,45.15
2019-03-31T17:57:10.988Z,45.42
2019-03-31T17:59:39.179Z,45.50
2019-03-31T18:02:07.390Z,45.70
2019-03-31T18:04:38.258Z,46.31
2019-03-31T18:07:05.518Z,46.78
2019-03-31T18:09:33.722Z,47.31
2019-03-31T18:12:01.927Z,47.86
2019-03-31T18:14:30.122Z,48.20
2019-03-31T18:16:58.339Z,48.50
2019-03-31T18:19:26.540Z,48.71
2019-03-31T18:21:54.754Z,49.04
2019-03-31T18:24:22.943Z,49.12
2019-03-31T18:26:51.152Z,49.22
2019-03-31T18:29:19.346Z,49.69
2019-03-31T18:31:47.802Z,49.91
2019-03-31T18:34:16.460Z,49.98
2019-03-31T18:36:44.679Z,50.32
2019-03-31T18:39:12.882Z,50.63
2019-03-31T18:41:41.093Z,51.04
2019-03-31T18:44:09.294Z,51.27
2019-03-31T18:46:37.492Z,51.63
2019-03-31T18:49:05.700Z,51.55
2019-03-31T18:51:33.891Z,51.56
2019-03-31T18:54:03.746Z,51.92
2019-03-31T18:56:39.274Z,52.71
2019-03-31T18:59:26.902Z,52.61
2019-03-31T19:01:56.994Z,52.50
2019-03-31T19:04:32.503Z,52.49
2019-03-31T19:07:02.346Z,52.97
2019-03-31T19:09:41.261Z,53.62
2019-03-31T19:12:11.101Z,53.83
2019-03-31T19:14:43.996Z,54.28
2019-03-31T19:17:13.852Z,54.71
2019-03-31T19:19:46.576Z,55.25
2019-03-31T19:22:25.445Z,54.88
2019-03-31T19:25:01.237Z,54.02
2019-03-31T19:27:31.086Z,54.02
2019-03-31T19:30:17.117Z,54.27
2019-03-31T19:33:03.229Z,54.91
2019-03-31T19:35:33.597Z,55.55
2019-03-31T19:38:03.448Z,55.71
2019-03-31T19:40:33.305Z,55.70
2019-03-31T19:43:09.225Z,55.98
2019-03-31T19:45:55.916Z,55.55
2019-03-31T19:48:34.157Z,55.17
2019-03-31T19:51:04.023Z,55.29
2019-03-31T19:53:49.551Z,55.67
2019-03-31T19:56:22.292Z,55.54
2019-03-31T19:59:04.014Z,55.30
2019-03-31T20:01:45.843Z,54.71
2019-03-31T20:04:21.316Z,54.60
2019-03-31T20:07:07.189Z,54.11
2019-03-31T20:09:49.401Z,53.99
2019-03-31T20:12:19.999Z,54.15
2019-03-31T20:14:52.943Z,54.42
2019-03-31T20:17:28.196Z,54.43
2019-03-31T20:20:13.025Z,54.50
2019-03-31T20:23:06.506Z,54.57
2019-03-31T20:25:39.290Z,54.15
2019-03-31T20:28:25.394Z,54.04
2019-03-31T20:31:10.967Z,53.64
2019-03-31T20:33:40.823Z,54.09
2019-03-31T20:36:26.602Z,54.09
2019-03-31T20:38:56.463Z,54.23
2019-03-31T20:41:44.348Z,54.54
2019-03-31T20:44:12.563Z,54.60
2019-03-31T20:46:41.150Z,54.57
2019-03-31T20:49:09.351Z,54.57
2019-03-31T20:51:37.847Z,54.34
2019-03-31T20:54:06.302Z,54.24
2019-03-31T20:56:34.794Z,54.48
2019-03-31T20:59:03.278Z,54.37
2019-03-31T21:01:31.753Z,54.59
2019-03-31T21:04:00.439Z,55.07
2019-03-31T21:06:28.715Z,55.12
2019-03-31T21:08:57.204Z,54.84
2019-03-31T21:11:25.703Z,55.08
2019-03-31T21:13:56.787Z,55.44
2019-03-31T21:16:23.843Z,55.44
2019-03-31T21:18:52.037Z,55.51
2019-03-31T21:21:20.248Z,55.34
2019-03-31T21:23:48.457Z,55.46
2019-03-31T21:26:16.675Z,55.46
2019-03-31T21:28:44.871Z,55.52
2019-03-31T21:31:13.073Z,55.79
2019-03-31T21:33:41.276Z,55.86
2019-03-31T21:36:09.947Z,55.64
2019-03-31T21:38:38.838Z,55.99
2019-03-31T21:41:07.707Z,56.07
2019-03-31T21:43:35.915Z,55.94
2019-03-31T21:46:04.132Z,56.33
2019-03-31T21:48:32.331Z,56.10
2019-03-31T21:51:00.551Z,56.28
2019-03-31T21:53:28.745Z,56.38
2019-03-31T21:55:56.942Z,56.38
2019-03-31T21:58:25.148Z,56.63
2019-03-31T22:00:56.432Z,56.48
2019-03-31T22:03:24.634Z,56.48
2019-03-31T22:05:52.833Z,56.43
2019-03-31T22:08:21.059Z,56.66
2019-03-31T22:10:49.264Z,57.11
2019-03-31T22:13:17.464Z,57.11
2019-03-31T22:15:45.703Z,56.82
2019-03-31T22:18:13.870Z,56.93
2019-03-31T22:20:42.080Z,57.34
2019-03-31T22:23:10.272Z,57.66
2019-03-31T22:25:38.485Z,58.81
2019-03-31T22:28:06.683Z,58.92
2019-03-31T22:30:35.524Z,58.73
2019-03-31T22:33:03.982Z,58.72
2019-03-31T22:35:32.195Z,58.95
2019-03-31T22:38:02.386Z,58.84
2019-03-31T22:40:30.323Z,58.96
2019-03-31T22:42:58.522Z,59.01
2019-03-31T22:45:26.731Z,58.58
2019-03-31T22:47:54.929Z,59.12
2019-03-31T22:50:23.137Z,59.32
2019-03-31T22:52:51.407Z,60.17
2019-03-31T22:55:19.632Z,60.41
2019-03-31T22:57:48.289Z,60.34
2019-03-31T23:00:18.130Z,60.46
2019-03-31T23:02:46.348Z,60.67
2019-03-31T23:05:14.544Z,61.10
2019-03-31T23:07:42.768Z,60.97
2019-03-31T23:10:10.987Z,60.98
2019-03-31T23:12:40.252Z,61.15
2019-03-31T23:15:08.931Z,61.68
2019-03-31T23:17:37.130Z,61.95
2019-03-31T23:20:06.271Z,62.30
2019-03-31T23:22:34.466Z,62.53
2019-03-31T23:25:02.669Z,62.70
2019-03-31T23:27:30.873Z,62.94
2019-03-31T23:29:59.068Z,63.12
2019-03-31T23:32:27.292Z,63.26
2019-03-31T23:34:55.493Z,63.25
2019-03-31T23:37:23.693Z,63.24
2019-03-31T23:39:51.909Z,63.32
2019-03-31T23:42:22.593Z,63.40
2019-03-31T23:44:50.067Z,63.68
2019-03-31T23:47:18.263Z,63.70
2019-03-31T23:49:46.458Z,63.54
2019-03-31T23:52:14.668Z,63.59
2019-03-31T23:54:42.861Z,63.89
2019-03-31T23:57:11.074Z,64.44
2019-03-31T23:59:39.261Z,64.71
